sensor_id;sensor_type;location;lat;lon;timestamp;temperature;humidity
67899;DHT22;54699;51.796;10.956;2024-01-30T00:00:27;17.60;49.60
67899;DHT22;54699;51.796;10.956;2024-01-30T00:02:53;17.60;49.50
67899;DHT22;54699;51.796;10.956;2024-01-30T00:05:20;17.60;49.50
67899;DHT22;54699;51.796;10.956;2024-01-30T00:07:47;17.60;49.60
67899;DHT22;54699;51.796;10.956;2024-01-30T00:10:15;17.60;49.60
67899;DHT22;54699;51.796;10.956;2024-01-30T00:12:42;17.60;49.50
67899;DHT22;54699;51.796;10.956;2024-01-30T00:15:09;17.60;49.50
67899;DHT22;54699;51.796;10.956;2024-01-30T00:17:36;17.70;49.70
67899;DHT22;54699;51.796;10.956;2024-01-30T00:20:03;17.60;49.60
67899;DHT22;54699;51.796;10.956;2024-01-30T00:22:31;17.60;49.50
67899;DHT22;54699;51.796;10.956;2024-01-30T00:24:58;17.60;49.60
67899;DHT22;54699;51.796;10.956;2024-01-30T00:27:26;17.60;49.60
67899;DHT22;54699;51.796;10.956;2024-01-30T00:29:53;17.60;49.60
67899;DHT22;54699;51.796;10.956;2024-01-30T00:32:20;17.60;49.60
67899;DHT22;54699;51.796;10.956;2024-01-30T00:34:48;17.60;49.60
67899;DHT22;54699;51.796;10.956;2024-01-30T00:37:15;17.60;49.60
67899;DHT22;54699;51.796;10.956;2024-01-30T00:39:42;17.60;49.70
67899;DHT22;54699;51.796;10.956;2024-01-30T00:42:09;17.60;49.70
67899;DHT22;54699;51.796;10.956;2024-01-30T00:44:37;17.60;49.70
67899;DHT22;54699;51.796;10.956;2024-01-30T00:47:04;17.60;49.60
67899;DHT22;54699;51.796;10.956;2024-01-30T00:49:31;17.60;49.70
67899;DHT22;54699;51.796;10.956;2024-01-30T00:51:58;17.60;49.70
67899;DHT22;54699;51.796;10.956;2024-01-30T00:54:25;17.60;49.70
67899;DHT22;54699;51.796;10.956;2024-01-30T00:56:52;17.60;49.70
67899;DHT22;54699;51.796;10.956;2024-01-30T00:59:19;17.60;49.70
67899;DHT22;54699;51.796;10.956;2024-01-30T01:01:47;17.60;49.70
67899;DHT22;54699;51.796;10.956;2024-01-30T01:04:14;17.50;49.80
67899;DHT22;54699;51.796;10.956;2024-01-30T01:06:45;17.60;49.70
67899;DHT22;54699;51.796;10.956;2024-01-30T01:09:12;17.60;49.70
67899;DHT22;54699;51.796;10.956;2024-01-30T01:11:39;17.60;49.70
67899;DHT22;54699;51.796;10.956;2024-01-30T01:14:06;17.50;49.70
67899;DHT22;54699;51.796;10.956;2024-01-30T01:16:33;17.50;49.60
67899;DHT22;54699;51.796;10.956;2024-01-30T01:19:02;17.50;49.70
67899;DHT22;54699;51.796;10.956;2024-01-30T01:21:28;17.50;49.70
67899;DHT22;54699;51.796;10.956;2024-01-30T01:23:55;17.50;49.80
67899;DHT22;54699;51.796;10.956;2024-01-30T01:26:22;17.50;49.80
67899;DHT22;54699;51.796;10.956;2024-01-30T01:28:49;17.50;49.80
67899;DHT22;54699;51.796;10.956;2024-01-30T01:31:16;17.50;49.80
67899;DHT22;54699;51.796;10.956;2024-01-30T01:33:43;17.50;49.80
67899;DHT22;54699;51.796;10.956;2024-01-30T01:36:11;17.50;49.70
67899;DHT22;54699;51.796;10.956;2024-01-30T01:38:39;17.50;50.60
67899;DHT22;54699;51.796;10.956;2024-01-30T01:41:06;17.50;49.70
67899;DHT22;54699;51.796;10.956;2024-01-30T01:43:33;17.50;49.80
67899;DHT22;54699;51.796;10.956;2024-01-30T01:46:00;17.50;49.80
67899;DHT22;54699;51.796;10.956;2024-01-30T01:48:27;17.50;49.80
67899;DHT22;54699;51.796;10.956;2024-01-30T01:50:54;17.50;49.80
67899;DHT22;54699;51.796;10.956;2024-01-30T01:53:22;17.50;49.80
67899;DHT22;54699;51.796;10.956;2024-01-30T01:55:50;17.50;49.90
67899;DHT22;54699;51.796;10.956;2024-01-30T01:58:18;17.50;49.80
67899;DHT22;54699;51.796;10.956;2024-01-30T02:00:48;17.50;49.80
67899;DHT22;54699;51.796;10.956;2024-01-30T02:03:16;17.50;49.80
67899;DHT22;54699;51.796;10.956;2024-01-30T02:05:46;17.50;49.90
67899;DHT22;54699;51.796;10.956;2024-01-30T02:08:13;17.40;49.80
67899;DHT22;54699;51.796;10.956;2024-01-30T02:10:42;17.50;49.90
67899;DHT22;54699;51.796;10.956;2024-01-30T02:13:08;17.50;49.80
67899;DHT22;54699;51.796;10.956;2024-01-30T02:15:35;17.40;49.80
67899;DHT22;54699;51.796;10.956;2024-01-30T02:18:02;17.50;49.90
67899;DHT22;54699;51.796;10.956;2024-01-30T02:20:29;17.40;49.90
67899;DHT22;54699;51.796;10.956;2024-01-30T02:22:59;17.40;49.80
67899;DHT22;54699;51.796;10.956;2024-01-30T02:25:30;17.40;49.80
67899;DHT22;54699;51.796;10.956;2024-01-30T02:27:59;17.40;49.80
67899;DHT22;54699;51.796;10.956;2024-01-30T02:30:26;17.40;50.70
67899;DHT22;54699;51.796;10.956;2024-01-30T02:32:53;17.40;49.80
67899;DHT22;54699;51.796;10.956;2024-01-30T02:35:20;17.40;50.80
67899;DHT22;54699;51.796;10.956;2024-01-30T02:37:46;17.40;49.90
67899;DHT22;54699;51.796;10.956;2024-01-30T02:40:15;17.40;49.80
67899;DHT22;54699;51.796;10.956;2024-01-30T02:42:42;17.40;49.90
67899;DHT22;54699;51.796;10.956;2024-01-30T02:45:09;17.40;49.80
67899;DHT22;54699;51.796;10.956;2024-01-30T02:47:38;17.40;49.80
67899;DHT22;54699;51.796;10.956;2024-01-30T02:50:05;17.40;49.90
67899;DHT22;54699;51.796;10.956;2024-01-30T02:52:33;17.40;49.90
67899;DHT22;54699;51.796;10.956;2024-01-30T02:55:00;17.40;49.90
67899;DHT22;54699;51.796;10.956;2024-01-30T02:57:28;17.40;49.90
67899;DHT22;54699;51.796;10.956;2024-01-30T02:59:55;17.40;50.00
67899;DHT22;54699;51.796;10.956;2024-01-30T03:02:22;17.40;49.90
67899;DHT22;54699;51.796;10.956;2024-01-30T03:04:49;17.40;49.90
67899;DHT22;54699;51.796;10.956;2024-01-30T03:07:16;17.40;50.00
67899;DHT22;54699;51.796;10.956;2024-01-30T03:09:43;17.40;49.90
67899;DHT22;54699;51.796;10.956;2024-01-30T03:12:10;17.40;49.90
67899;DHT22;54699;51.796;10.956;2024-01-30T03:14:38;17.40;49.90
67899;DHT22;54699;51.796;10.956;2024-01-30T03:17:05;17.40;50.00
67899;DHT22;54699;51.796;10.956;2024-01-30T03:19:33;17.40;50.00
67899;DHT22;54699;51.796;10.956;2024-01-30T03:22:00;17.40;50.00
67899;DHT22;54699;51.796;10.956;2024-01-30T03:24:26;17.40;50.00
67899;DHT22;54699;51.796;10.956;2024-01-30T03:26:53;17.40;50.00
67899;DHT22;54699;51.796;10.956;2024-01-30T03:29:20;17.40;50.00
67899;DHT22;54699;51.796;10.956;2024-01-30T03:31:48;17.40;50.00
67899;DHT22;54699;51.796;10.956;2024-01-30T03:34:15;17.30;50.00
67899;DHT22;54699;51.796;10.956;2024-01-30T03:36:42;17.30;50.00
67899;DHT22;54699;51.796;10.956;2024-01-30T03:39:09;17.30;50.00
67899;DHT22;54699;51.796;10.956;2024-01-30T03:41:36;17.30;50.00
67899;DHT22;54699;51.796;10.956;2024-01-30T03:44:03;17.30;49.90
67899;DHT22;54699;51.796;10.956;2024-01-30T03:46:30;17.30;50.00
67899;DHT22;54699;51.796;10.956;2024-01-30T03:48:58;17.40;50.00
67899;DHT22;54699;51.796;10.956;2024-01-30T03:51:25;17.30;50.00
67899;DHT22;54699;51.796;10.956;2024-01-30T03:53:52;17.30;50.10
67899;DHT22;54699;51.796;10.956;2024-01-30T03:56:19;17.40;50.00
67899;DHT22;54699;51.796;10.956;2024-01-30T03:58:45;17.30;50.00
67899;DHT22;54699;51.796;10.956;2024-01-30T04:01:13;17.30;50.00
67899;DHT22;54699;51.796;10.956;2024-01-30T04:03:40;17.30;49.90
67899;DHT22;54699;51.796;10.956;2024-01-30T04:06:08;17.30;49.90
67899;DHT22;54699;51.796;10.956;2024-01-30T04:08:36;17.30;50.00
67899;DHT22;54699;51.796;10.956;2024-01-30T04:11:03;17.40;50.10
67899;DHT22;54699;51.796;10.956;2024-01-30T04:13:31;17.30;50.00
67899;DHT22;54699;51.796;10.956;2024-01-30T04:15:59;17.30;50.10
67899;DHT22;54699;51.796;10.956;2024-01-30T04:18:26;17.30;50.00
67899;DHT22;54699;51.796;10.956;2024-01-30T04:20:53;17.30;50.00
67899;DHT22;54699;51.796;10.956;2024-01-30T04:23:25;17.30;50.00
67899;DHT22;54699;51.796;10.956;2024-01-30T04:25:52;17.30;50.10
67899;DHT22;54699;51.796;10.956;2024-01-30T04:28:19;17.30;50.10
67899;DHT22;54699;51.796;10.956;2024-01-30T04:30:45;17.30;50.10
67899;DHT22;54699;51.796;10.956;2024-01-30T04:33:12;17.30;50.10
67899;DHT22;54699;51.796;10.956;2024-01-30T04:35:39;17.30;50.10
67899;DHT22;54699;51.796;10.956;2024-01-30T04:38:06;17.30;50.10
67899;DHT22;54699;51.796;10.956;2024-01-30T04:40:34;17.30;50.10
67899;DHT22;54699;51.796;10.956;2024-01-30T04:43:01;17.30;50.00
67899;DHT22;54699;51.796;10.956;2024-01-30T04:45:28;17.30;50.00
67899;DHT22;54699;51.796;10.956;2024-01-30T04:47:55;17.30;50.10
67899;DHT22;54699;51.796;10.956;2024-01-30T04:50:22;17.30;50.10
67899;DHT22;54699;51.796;10.956;2024-01-30T04:52:49;17.30;50.10
67899;DHT22;54699;51.796;10.956;2024-01-30T04:55:16;17.30;50.10
67899;DHT22;54699;51.796;10.956;2024-01-30T04:57:44;17.30;50.10
67899;DHT22;54699;51.796;10.956;2024-01-30T05:00:11;17.30;50.20
67899;DHT22;54699;51.796;10.956;2024-01-30T05:02:38;17.20;50.10
67899;DHT22;54699;51.796;10.956;2024-01-30T05:05:05;17.30;50.10
67899;DHT22;54699;51.796;10.956;2024-01-30T05:07:33;17.30;50.30
67899;DHT22;54699;51.796;10.956;2024-01-30T05:10:00;17.20;50.10
67899;DHT22;54699;51.796;10.956;2024-01-30T05:12:26;17.20;50.20
67899;DHT22;54699;51.796;10.956;2024-01-30T05:14:55;17.20;50.40
67899;DHT22;54699;51.796;10.956;2024-01-30T05:17:25;17.20;50.20
67899;DHT22;54699;51.796;10.956;2024-01-30T05:19:51;17.20;50.20
67899;DHT22;54699;51.796;10.956;2024-01-30T05:22:18;17.20;50.20
67899;DHT22;54699;51.796;10.956;2024-01-30T05:24:45;17.20;50.20
67899;DHT22;54699;51.796;10.956;2024-01-30T05:27:12;17.20;50.20
67899;DHT22;54699;51.796;10.956;2024-01-30T05:29:39;17.20;50.20
67899;DHT22;54699;51.796;10.956;2024-01-30T05:32:08;17.20;50.20
67899;DHT22;54699;51.796;10.956;2024-01-30T05:34:36;17.20;50.20
67899;DHT22;54699;51.796;10.956;2024-01-30T05:37:03;17.20;50.20
67899;DHT22;54699;51.796;10.956;2024-01-30T05:39:30;17.20;50.10
67899;DHT22;54699;51.796;10.956;2024-01-30T05:41:58;17.20;50.10
67899;DHT22;54699;51.796;10.956;2024-01-30T05:44:25;17.20;50.10
67899;DHT22;54699;51.796;10.956;2024-01-30T05:46:52;17.20;50.10
67899;DHT22;54699;51.796;10.956;2024-01-30T05:49:20;17.20;50.10
67899;DHT22;54699;51.796;10.956;2024-01-30T05:51:47;17.20;50.30
67899;DHT22;54699;51.796;10.956;2024-01-30T05:54:14;17.20;50.50
67899;DHT22;54699;51.796;10.956;2024-01-30T05:56:41;17.20;50.50
67899;DHT22;54699;51.796;10.956;2024-01-30T05:59:09;17.20;50.50
67899;DHT22;54699;51.796;10.956;2024-01-30T06:01:45;17.20;50.30
67899;DHT22;54699;51.796;10.956;2024-01-30T06:04:12;17.10;50.40
67899;DHT22;54699;51.796;10.956;2024-01-30T06:06:43;17.10;50.70
67899;DHT22;54699;51.796;10.956;2024-01-30T06:09:10;17.10;50.90
67899;DHT22;54699;51.796;10.956;2024-01-30T06:11:38;17.20;50.50
67899;DHT22;54699;51.796;10.956;2024-01-30T06:14:05;17.20;50.70
67899;DHT22;54699;51.796;10.956;2024-01-30T06:16:32;17.20;50.70
67899;DHT22;54699;51.796;10.956;2024-01-30T06:18:59;17.20;50.70
67899;DHT22;54699;51.796;10.956;2024-01-30T06:21:28;17.20;50.80
67899;DHT22;54699;51.796;10.956;2024-01-30T06:23:57;17.20;50.50
67899;DHT22;54699;51.796;10.956;2024-01-30T06:26:24;17.20;50.60
67899;DHT22;54699;51.796;10.956;2024-01-30T06:28:52;17.30;50.50
67899;DHT22;54699;51.796;10.956;2024-01-30T06:31:19;17.30;50.40
67899;DHT22;54699;51.796;10.956;2024-01-30T06:33:46;17.30;50.40
67899;DHT22;54699;51.796;10.956;2024-01-30T06:36:13;17.30;50.40
67899;DHT22;54699;51.796;10.956;2024-01-30T06:38:41;17.30;50.30
67899;DHT22;54699;51.796;10.956;2024-01-30T06:41:09;17.30;50.40
67899;DHT22;54699;51.796;10.956;2024-01-30T06:43:45;17.30;50.50
67899;DHT22;54699;51.796;10.956;2024-01-30T06:46:12;17.30;50.40
67899;DHT22;54699;51.796;10.956;2024-01-30T06:48:40;17.30;50.50
67899;DHT22;54699;51.796;10.956;2024-01-30T06:51:10;17.30;50.60
67899;DHT22;54699;51.796;10.956;2024-01-30T06:53:38;17.30;50.40
67899;DHT22;54699;51.796;10.956;2024-01-30T06:56:11;17.30;50.30
67899;DHT22;54699;51.796;10.956;2024-01-30T06:58:39;17.20;50.20
67899;DHT22;54699;51.796;10.956;2024-01-30T07:01:06;17.20;50.30
67899;DHT22;54699;51.796;10.956;2024-01-30T07:03:36;17.20;50.20
67899;DHT22;54699;51.796;10.956;2024-01-30T07:06:34;17.20;49.20
67899;DHT22;54699;51.796;10.956;2024-01-30T07:08:52;17.20;49.60
67899;DHT22;54699;51.796;10.956;2024-01-30T07:11:20;17.20;49.60
67899;DHT22;54699;51.796;10.956;2024-01-30T07:13:49;17.30;50.40
67899;DHT22;54699;51.796;10.956;2024-01-30T07:16:19;17.30;50.40
67899;DHT22;54699;51.796;10.956;2024-01-30T07:18:47;17.30;50.20
67899;DHT22;54699;51.796;10.956;2024-01-30T07:21:15;17.30;50.10
67899;DHT22;54699;51.796;10.956;2024-01-30T07:23:43;17.30;50.20
67899;DHT22;54699;51.796;10.956;2024-01-30T07:26:12;17.30;49.80
67899;DHT22;54699;51.796;10.956;2024-01-30T07:28:42;17.30;50.20
67899;DHT22;54699;51.796;10.956;2024-01-30T07:31:14;17.30;50.30
67899;DHT22;54699;51.796;10.956;2024-01-30T07:33:40;17.30;50.40
67899;DHT22;54699;51.796;10.956;2024-01-30T07:36:08;17.30;50.40
67899;DHT22;54699;51.796;10.956;2024-01-30T07:38:35;17.30;50.40
67899;DHT22;54699;51.796;10.956;2024-01-30T07:41:03;17.30;50.40
67899;DHT22;54699;51.796;10.956;2024-01-30T07:43:30;17.30;50.40
67899;DHT22;54699;51.796;10.956;2024-01-30T07:46:01;17.30;50.80
67899;DHT22;54699;51.796;10.956;2024-01-30T07:48:31;17.30;50.40
67899;DHT22;54699;51.796;10.956;2024-01-30T07:51:01;17.30;50.40
67899;DHT22;54699;51.796;10.956;2024-01-30T07:53:30;17.30;50.40
67899;DHT22;54699;51.796;10.956;2024-01-30T07:55:57;17.30;50.60
67899;DHT22;54699;51.796;10.956;2024-01-30T07:58:26;17.30;50.50
67899;DHT22;54699;51.796;10.956;2024-01-30T08:00:54;17.30;50.50
67899;DHT22;54699;51.796;10.956;2024-01-30T08:03:24;17.30;50.50
67899;DHT22;54699;51.796;10.956;2024-01-30T08:05:51;17.30;50.50
67899;DHT22;54699;51.796;10.956;2024-01-30T08:08:18;17.30;50.60
67899;DHT22;54699;51.796;10.956;2024-01-30T08:10:48;17.40;50.70
67899;DHT22;54699;51.796;10.956;2024-01-30T08:13:16;17.30;50.60
67899;DHT22;54699;51.796;10.956;2024-01-30T08:15:43;17.40;50.80
67899;DHT22;54699;51.796;10.956;2024-01-30T08:18:12;17.30;50.80
67899;DHT22;54699;51.796;10.956;2024-01-30T08:20:45;17.40;50.80
67899;DHT22;54699;51.796;10.956;2024-01-30T08:23:13;17.30;50.80
67899;DHT22;54699;51.796;10.956;2024-01-30T08:25:40;17.40;51.00
67899;DHT22;54699;51.796;10.956;2024-01-30T08:28:11;17.40;51.00
67899;DHT22;54699;51.796;10.956;2024-01-30T08:31:01;17.40;51.00
67899;DHT22;54699;51.796;10.956;2024-01-30T08:33:31;17.40;50.80
67899;DHT22;54699;51.796;10.956;2024-01-30T08:36:06;17.40;50.70
67899;DHT22;54699;51.796;10.956;2024-01-30T08:38:37;17.40;50.70
67899;DHT22;54699;51.796;10.956;2024-01-30T08:41:06;17.50;50.50
67899;DHT22;54699;51.796;10.956;2024-01-30T08:43:34;17.50;50.30
67899;DHT22;54699;51.796;10.956;2024-01-30T08:46:02;17.50;50.20
67899;DHT22;54699;51.796;10.956;2024-01-30T08:48:30;17.60;50.80
67899;DHT22;54699;51.796;10.956;2024-01-30T08:51:00;17.70;50.70
67899;DHT22;54699;51.796;10.956;2024-01-30T08:53:29;17.70;50.50
67899;DHT22;54699;51.796;10.956;2024-01-30T08:55:57;17.80;51.00
67899;DHT22;54699;51.796;10.956;2024-01-30T08:58:24;17.90;50.80
67899;DHT22;54699;51.796;10.956;2024-01-30T09:00:55;17.90;50.40
67899;DHT22;54699;51.796;10.956;2024-01-30T09:03:22;18.00;49.40
67899;DHT22;54699;51.796;10.956;2024-01-30T09:05:53;18.00;49.20
67899;DHT22;54699;51.796;10.956;2024-01-30T09:08:21;18.00;49.90
67899;DHT22;54699;51.796;10.956;2024-01-30T09:10:50;18.00;50.00
67899;DHT22;54699;51.796;10.956;2024-01-30T09:13:17;17.90;50.70
67899;DHT22;54699;51.796;10.956;2024-01-30T09:15:44;17.90;50.00
67899;DHT22;54699;51.796;10.956;2024-01-30T09:18:12;17.90;50.20
67899;DHT22;54699;51.796;10.956;2024-01-30T09:20:41;17.90;51.40
67899;DHT22;54699;51.796;10.956;2024-01-30T09:23:08;17.90;51.60
67899;DHT22;54699;51.796;10.956;2024-01-30T09:25:36;17.80;51.40
67899;DHT22;54699;51.796;10.956;2024-01-30T09:28:05;17.80;51.40
67899;DHT22;54699;51.796;10.956;2024-01-30T09:30:32;17.80;52.60
67899;DHT22;54699;51.796;10.956;2024-01-30T09:32:59;17.80;52.10
67899;DHT22;54699;51.796;10.956;2024-01-30T09:35:26;17.80;52.90
67899;DHT22;54699;51.796;10.956;2024-01-30T09:37:54;17.80;52.50
67899;DHT22;54699;51.796;10.956;2024-01-30T09:40:22;17.80;52.90
67899;DHT22;54699;51.796;10.956;2024-01-30T09:42:50;17.80;52.30
67899;DHT22;54699;51.796;10.956;2024-01-30T09:45:20;17.80;51.60
67899;DHT22;54699;51.796;10.956;2024-01-30T09:47:51;17.80;51.90
67899;DHT22;54699;51.796;10.956;2024-01-30T09:50:20;17.80;51.90
67899;DHT22;54699;51.796;10.956;2024-01-30T09:52:50;17.80;52.10
67899;DHT22;54699;51.796;10.956;2024-01-30T09:55:19;17.80;50.50
67899;DHT22;54699;51.796;10.956;2024-01-30T09:57:47;17.70;51.20
67899;DHT22;54699;51.796;10.956;2024-01-30T10:00:21;17.80;50.70
67899;DHT22;54699;51.796;10.956;2024-01-30T10:02:52;17.80;50.00
67899;DHT22;54699;51.796;10.956;2024-01-30T10:05:19;17.70;50.50
67899;DHT22;54699;51.796;10.956;2024-01-30T10:07:50;17.80;51.10
67899;DHT22;54699;51.796;10.956;2024-01-30T10:10:21;17.80;50.80
67899;DHT22;54699;51.796;10.956;2024-01-30T10:12:49;17.80;50.60
67899;DHT22;54699;51.796;10.956;2024-01-30T10:15:17;17.80;50.60
67899;DHT22;54699;51.796;10.956;2024-01-30T10:17:45;17.80;51.00
67899;DHT22;54699;51.796;10.956;2024-01-30T10:20:12;17.80;51.30
67899;DHT22;54699;51.796;10.956;2024-01-30T10:22:40;17.80;51.10
67899;DHT22;54699;51.796;10.956;2024-01-30T10:25:09;17.80;51.20
67899;DHT22;54699;51.796;10.956;2024-01-30T10:27:36;17.80;51.90
67899;DHT22;54699;51.796;10.956;2024-01-30T10:30:07;17.80;51.70
67899;DHT22;54699;51.796;10.956;2024-01-30T10:32:35;17.80;50.00
67899;DHT22;54699;51.796;10.956;2024-01-30T10:35:04;17.80;50.40
67899;DHT22;54699;51.796;10.956;2024-01-30T10:37:33;17.80;50.70
67899;DHT22;54699;51.796;10.956;2024-01-30T10:40:03;17.90;50.00
67899;DHT22;54699;51.796;10.956;2024-01-30T10:42:33;17.90;49.60
67899;DHT22;54699;51.796;10.956;2024-01-30T10:45:12;18.00;49.70
67899;DHT22;54699;51.796;10.956;2024-01-30T10:47:43;18.10;49.50
67899;DHT22;54699;51.796;10.956;2024-01-30T10:50:15;18.20;49.20
67899;DHT22;54699;51.796;10.956;2024-01-30T10:52:46;18.30;50.00
67899;DHT22;54699;51.796;10.956;2024-01-30T10:55:18;18.40;50.50
67899;DHT22;54699;51.796;10.956;2024-01-30T10:57:48;18.50;50.80
67899;DHT22;54699;51.796;10.956;2024-01-30T11:00:17;18.50;50.50
67899;DHT22;54699;51.796;10.956;2024-01-30T11:02:49;18.60;50.40
67899;DHT22;54699;51.796;10.956;2024-01-30T11:05:24;18.70;51.20
67899;DHT22;54699;51.796;10.956;2024-01-30T11:07:52;18.70;50.80
67899;DHT22;54699;51.796;10.956;2024-01-30T11:10:19;18.70;51.00
67899;DHT22;54699;51.796;10.956;2024-01-30T11:12:46;18.60;50.80
67899;DHT22;54699;51.796;10.956;2024-01-30T11:15:19;18.60;50.70
67899;DHT22;54699;51.796;10.956;2024-01-30T11:17:49;18.60;50.90
67899;DHT22;54699;51.796;10.956;2024-01-30T11:20:19;18.60;49.90
67899;DHT22;54699;51.796;10.956;2024-01-30T11:22:48;18.50;48.70
67899;DHT22;54699;51.796;10.956;2024-01-30T11:25:17;18.50;49.00
67899;DHT22;54699;51.796;10.956;2024-01-30T11:27:46;18.50;48.60
67899;DHT22;54699;51.796;10.956;2024-01-30T11:30:21;18.50;48.90
67899;DHT22;54699;51.796;10.956;2024-01-30T11:32:59;18.50;49.20
67899;DHT22;54699;51.796;10.956;2024-01-30T11:35:31;18.40;48.70
67899;DHT22;54699;51.796;10.956;2024-01-30T11:38:00;18.40;48.90
67899;DHT22;54699;51.796;10.956;2024-01-30T11:40:29;18.40;49.60
67899;DHT22;54699;51.796;10.956;2024-01-30T11:42:57;18.40;49.60
67899;DHT22;54699;51.796;10.956;2024-01-30T11:45:25;18.40;50.30
67899;DHT22;54699;51.796;10.956;2024-01-30T11:47:52;18.40;50.50
67899;DHT22;54699;51.796;10.956;2024-01-30T11:50:19;18.40;49.80
67899;DHT22;54699;51.796;10.956;2024-01-30T11:52:47;18.40;50.20
67899;DHT22;54699;51.796;10.956;2024-01-30T11:55:15;18.40;50.40
67899;DHT22;54699;51.796;10.956;2024-01-30T11:57:43;18.40;50.30
67899;DHT22;54699;51.796;10.956;2024-01-30T12:00:14;18.40;50.60
67899;DHT22;54699;51.796;10.956;2024-01-30T12:02:42;18.40;50.80
67899;DHT22;54699;51.796;10.956;2024-01-30T12:05:09;18.30;49.70
67899;DHT22;54699;51.796;10.956;2024-01-30T12:07:36;18.40;50.80
67899;DHT22;54699;51.796;10.956;2024-01-30T12:10:04;18.40;50.80
67899;DHT22;54699;51.796;10.956;2024-01-30T12:12:37;18.40;49.40
67899;DHT22;54699;51.796;10.956;2024-01-30T12:15:10;18.40;50.60
67899;DHT22;54699;51.796;10.956;2024-01-30T12:17:39;18.40;50.70
67899;DHT22;54699;51.796;10.956;2024-01-30T12:20:06;18.40;51.10
67899;DHT22;54699;51.796;10.956;2024-01-30T12:22:38;18.40;50.10
67899;DHT22;54699;51.796;10.956;2024-01-30T12:25:07;18.40;50.80
67899;DHT22;54699;51.796;10.956;2024-01-30T12:27:35;18.40;50.10
67899;DHT22;54699;51.796;10.956;2024-01-30T12:30:06;18.40;50.40
67899;DHT22;54699;51.796;10.956;2024-01-30T12:32:34;18.40;50.20
67899;DHT22;54699;51.796;10.956;2024-01-30T12:35:01;18.40;50.80
67899;DHT22;54699;51.796;10.956;2024-01-30T12:37:29;18.40;51.00
67899;DHT22;54699;51.796;10.956;2024-01-30T12:39:56;18.40;50.90
67899;DHT22;54699;51.796;10.956;2024-01-30T12:42:24;18.40;50.90
67899;DHT22;54699;51.796;10.956;2024-01-30T12:44:57;18.40;50.60
67899;DHT22;54699;51.796;10.956;2024-01-30T12:47:25;18.40;49.00
67899;DHT22;54699;51.796;10.956;2024-01-30T12:49:52;18.40;48.40
67899;DHT22;54699;51.796;10.956;2024-01-30T12:52:20;18.30;48.70
67899;DHT22;54699;51.796;10.956;2024-01-30T12:54:48;18.20;47.50
67899;DHT22;54699;51.796;10.956;2024-01-30T12:57:16;18.20;47.80
67899;DHT22;54699;51.796;10.956;2024-01-30T12:59:44;18.10;47.30
67899;DHT22;54699;51.796;10.956;2024-01-30T13:02:12;18.10;47.50
67899;DHT22;54699;51.796;10.956;2024-01-30T13:04:41;18.10;47.40
67899;DHT22;54699;51.796;10.956;2024-01-30T13:07:09;18.10;47.60
67899;DHT22;54699;51.796;10.956;2024-01-30T13:09:36;18.10;47.50
67899;DHT22;54699;51.796;10.956;2024-01-30T13:12:03;18.10;47.40
67899;DHT22;54699;51.796;10.956;2024-01-30T13:14:30;18.10;47.70
67899;DHT22;54699;51.796;10.956;2024-01-30T13:16:57;18.10;47.60
67899;DHT22;54699;51.796;10.956;2024-01-30T13:19:24;18.10;46.50
67899;DHT22;54699;51.796;10.956;2024-01-30T13:21:53;18.10;47.60
67899;DHT22;54699;51.796;10.956;2024-01-30T13:24:20;18.10;47.70
67899;DHT22;54699;51.796;10.956;2024-01-30T13:26:47;18.10;48.00
67899;DHT22;54699;51.796;10.956;2024-01-30T13:29:15;18.20;49.80
67899;DHT22;54699;51.796;10.956;2024-01-30T13:31:42;18.20;49.40
67899;DHT22;54699;51.796;10.956;2024-01-30T13:34:11;18.20;49.40
67899;DHT22;54699;51.796;10.956;2024-01-30T13:36:39;18.20;49.30
67899;DHT22;54699;51.796;10.956;2024-01-30T13:39:07;18.20;49.20
67899;DHT22;54699;51.796;10.956;2024-01-30T13:41:35;18.10;49.20
67899;DHT22;54699;51.796;10.956;2024-01-30T13:44:02;18.10;49.10
67899;DHT22;54699;51.796;10.956;2024-01-30T13:46:29;18.10;49.00
67899;DHT22;54699;51.796;10.956;2024-01-30T13:48:57;18.20;49.20
67899;DHT22;54699;51.796;10.956;2024-01-30T13:51:24;18.20;49.10
67899;DHT22;54699;51.796;10.956;2024-01-30T13:53:51;18.20;49.20
67899;DHT22;54699;51.796;10.956;2024-01-30T13:56:20;18.20;49.10
67899;DHT22;54699;51.796;10.956;2024-01-30T13:58:47;18.20;47.10
67899;DHT22;54699;51.796;10.956;2024-01-30T14:01:15;18.20;46.50
67899;DHT22;54699;51.796;10.956;2024-01-30T14:03:42;18.20;46.10
67899;DHT22;54699;51.796;10.956;2024-01-30T14:06:09;18.20;46.40
67899;DHT22;54699;51.796;10.956;2024-01-30T14:08:37;18.20;48.50
67899;DHT22;54699;51.796;10.956;2024-01-30T14:11:04;18.20;48.40
67899;DHT22;54699;51.796;10.956;2024-01-30T14:13:32;18.20;48.40
67899;DHT22;54699;51.796;10.956;2024-01-30T14:16:00;18.20;50.90
67899;DHT22;54699;51.796;10.956;2024-01-30T14:18:28;18.20;51.20
67899;DHT22;54699;51.796;10.956;2024-01-30T14:20:57;18.20;50.50
67899;DHT22;54699;51.796;10.956;2024-01-30T14:23:25;18.20;50.70
67899;DHT22;54699;51.796;10.956;2024-01-30T14:25:52;18.20;51.20
67899;DHT22;54699;51.796;10.956;2024-01-30T14:28:19;18.20;50.90
67899;DHT22;54699;51.796;10.956;2024-01-30T14:30:51;18.20;50.80
67899;DHT22;54699;51.796;10.956;2024-01-30T14:33:18;18.20;50.50
67899;DHT22;54699;51.796;10.956;2024-01-30T14:35:44;18.20;50.60
67899;DHT22;54699;51.796;10.956;2024-01-30T14:38:12;18.30;50.80
67899;DHT22;54699;51.796;10.956;2024-01-30T14:40:39;18.30;50.70
67899;DHT22;54699;51.796;10.956;2024-01-30T14:43:08;18.30;50.00
67899;DHT22;54699;51.796;10.956;2024-01-30T14:45:35;18.20;50.30
67899;DHT22;54699;51.796;10.956;2024-01-30T14:48:04;18.30;50.50
67899;DHT22;54699;51.796;10.956;2024-01-30T14:50:33;18.30;50.80
67899;DHT22;54699;51.796;10.956;2024-01-30T14:53:00;18.30;51.00
67899;DHT22;54699;51.796;10.956;2024-01-30T14:55:27;18.30;50.90
67899;DHT22;54699;51.796;10.956;2024-01-30T14:57:54;18.30;51.00
67899;DHT22;54699;51.796;10.956;2024-01-30T15:00:22;18.30;50.50
67899;DHT22;54699;51.796;10.956;2024-01-30T15:02:49;18.30;51.70
67899;DHT22;54699;51.796;10.956;2024-01-30T15:05:17;18.30;52.10
67899;DHT22;54699;51.796;10.956;2024-01-30T15:07:44;18.40;50.40
67899;DHT22;54699;51.796;10.956;2024-01-30T15:10:11;18.40;52.10
67899;DHT22;54699;51.796;10.956;2024-01-30T15:12:38;18.40;50.80
67899;DHT22;54699;51.796;10.956;2024-01-30T15:15:06;18.40;50.10
67899;DHT22;54699;51.796;10.956;2024-01-30T15:17:33;18.40;52.00
67899;DHT22;54699;51.796;10.956;2024-01-30T15:20:00;18.50;54.30